sensor_id;sensor_type;location;lat;lon;timestamp;P1;durP1;ratioP1;P2;durP2;ratioP2
62844;SDS011;48929;47.910;20.390;2023-05-07T00:33:36;12.60;;;8.77;;
62844;SDS011;48929;47.910;20.390;2023-05-07T00:41:16;13.95;;;8.75;;
62844;SDS011;48929;47.910;20.390;2023-05-07T00:43:44;16.35;;;8.95;;
62844;SDS011;48929;47.910;20.390;2023-05-07T00:47:08;13.73;;;8.60;;
62844;SDS011;48929;47.910;20.390;2023-05-07T00:50:39;11.85;;;8.68;;
62844;SDS011;48929;47.910;20.390;2023-05-07T00:53:38;12.55;;;8.38;;
62844;SDS011;48929;47.910;20.390;2023-05-07T00:56:51;11.77;;;8.50;;
62844;SDS011;48929;47.910;20.390;2023-05-07T01:00:09;12.75;;;8.80;;
62844;SDS011;48929;47.910;20.390;2023-05-07T01:07:18;13.98;;;8.25;;
62844;SDS011;48929;47.910;20.390;2023-05-07T01:14:36;13.23;;;7.85;;
62844;SDS011;48929;47.910;20.390;2023-05-07T01:52:34;13.32;;;8.13;;
62844;SDS011;48929;47.910;20.390;2023-05-07T01:56:11;11.88;;;7.70;;
62844;SDS011;48929;47.910;20.390;2023-05-07T01:59:57;14.38;;;8.20;;
62844;SDS011;48929;47.910;20.390;2023-05-07T02:33:17;13.75;;;8.25;;
62844;SDS011;48929;47.910;20.390;2023-05-07T02:48:10;11.90;;;7.93;;
62844;SDS011;48929;47.910;20.390;2023-05-07T03:01:53;13.48;;;8.02;;
62844;SDS011;48929;47.910;20.390;2023-05-07T03:05:22;11.10;;;7.80;;
62844;SDS011;48929;47.910;20.390;2023-05-07T03:08:41;14.55;;;8.07;;
62844;SDS011;48929;47.910;20.390;2023-05-07T03:12:05;12.50;;;8.40;;
62844;SDS011;48929;47.910;20.390;2023-05-07T03:16:27;15.43;;;8.38;;
62844;SDS011;48929;47.910;20.390;2023-05-07T03:18:39;13.90;;;8.18;;
62844;SDS011;48929;47.910;20.390;2023-05-07T03:27:48;11.55;;;7.95;;
62844;SDS011;48929;47.910;20.390;2023-05-07T03:29:04;11.52;;;8.05;;
62844;SDS011;48929;47.910;20.390;2023-05-07T03:32:15;13.00;;;8.32;;
62844;SDS011;48929;47.910;20.390;2023-05-07T03:35:25;12.60;;;8.32;;
62844;SDS011;48929;47.910;20.390;2023-05-07T03:38:45;12.68;;;8.80;;
62844;SDS011;48929;47.910;20.390;2023-05-07T03:53:09;15.05;;;9.02;;
62844;SDS011;48929;47.910;20.390;2023-05-07T04:12:17;15.18;;;9.00;;
62844;SDS011;48929;47.910;20.390;2023-05-07T04:15:40;14.88;;;9.07;;
62844;SDS011;48929;47.910;20.390;2023-05-07T04:18:58;14.85;;;9.43;;
62844;SDS011;48929;47.910;20.390;2023-05-07T04:33:35;14.88;;;9.73;;
62844;SDS011;48929;47.910;20.390;2023-05-07T04:43:43;13.60;;;9.65;;
62844;SDS011;48929;47.910;20.390;2023-05-07T04:46:45;14.68;;;10.13;;
62844;SDS011;48929;47.910;20.390;2023-05-07T04:50:09;13.88;;;9.40;;
62844;SDS011;48929;47.910;20.390;2023-05-07T04:53:29;15.48;;;9.48;;
62844;SDS011;48929;47.910;20.390;2023-05-07T04:57:15;15.35;;;9.82;;
62844;SDS011;48929;47.910;20.390;2023-05-07T05:00:29;17.37;;;10.77;;
62844;SDS011;48929;47.910;20.390;2023-05-07T05:04:05;13.80;;;10.07;;
62844;SDS011;48929;47.910;20.390;2023-05-07T05:14:12;15.07;;;9.88;;
62844;SDS011;48929;47.910;20.390;2023-05-07T05:17:43;12.25;;;9.38;;
62844;SDS011;48929;47.910;20.390;2023-05-07T05:20:14;12.82;;;9.43;;
62844;SDS011;48929;47.910;20.390;2023-05-07T05:22:42;11.50;;;8.68;;
62844;SDS011;48929;47.910;20.390;2023-05-07T05:25:39;11.35;;;8.30;;
62844;SDS011;48929;47.910;20.390;2023-05-07T05:29:59;11.57;;;8.40;;
62844;SDS011;48929;47.910;20.390;2023-05-07T05:38:09;13.13;;;8.77;;
62844;SDS011;48929;47.910;20.390;2023-05-07T05:40:40;11.30;;;8.38;;
62844;SDS011;48929;47.910;20.390;2023-05-07T05:43:30;10.63;;;8.43;;
62844;SDS011;48929;47.910;20.390;2023-05-07T05:46:42;10.85;;;7.60;;
62844;SDS011;48929;47.910;20.390;2023-05-07T05:49:27;10.43;;;7.18;;
62844;SDS011;48929;47.910;20.390;2023-05-07T05:55:12;9.13;;;7.20;;
62844;SDS011;48929;47.910;20.390;2023-05-07T05:57:42;9.70;;;6.80;;
62844;SDS011;48929;47.910;20.390;2023-05-07T06:00:29;7.95;;;6.35;;
62844;SDS011;48929;47.910;20.390;2023-05-07T06:03:17;9.40;;;7.00;;
62844;SDS011;48929;47.910;20.390;2023-05-07T06:05:54;10.27;;;7.18;;
62844;SDS011;48929;47.910;20.390;2023-05-07T06:08:40;9.32;;;7.53;;
62844;SDS011;48929;47.910;20.390;2023-05-07T06:11:22;9.68;;;7.63;;
62844;SDS011;48929;47.910;20.390;2023-05-07T06:14:13;10.15;;;7.53;;
62844;SDS011;48929;47.910;20.390;2023-05-07T06:16:48;10.27;;;7.53;;
62844;SDS011;48929;47.910;20.390;2023-05-07T06:21:39;9.82;;;7.63;;
62844;SDS011;48929;47.910;20.390;2023-05-07T06:22:38;10.30;;;7.70;;
62844;SDS011;48929;47.910;20.390;2023-05-07T06:25:17;11.32;;;8.48;;
62844;SDS011;48929;47.910;20.390;2023-05-07T06:28:06;10.35;;;7.40;;
62844;SDS011;48929;47.910;20.390;2023-05-07T06:31:14;9.98;;;8.10;;
62844;SDS011;48929;47.910;20.390;2023-05-07T06:34:24;11.50;;;8.43;;
62844;SDS011;48929;47.910;20.390;2023-05-07T08:23:53;10.55;;;7.35;;
62844;SDS011;48929;47.910;20.390;2023-05-07T08:31:03;8.00;;;5.80;;
62844;SDS011;48929;47.910;20.390;2023-05-07T08:56:32;8.52;;;6.07;;
62844;SDS011;48929;47.910;20.390;2023-05-07T09:02:31;8.02;;;5.28;;
62844;SDS011;48929;47.910;20.390;2023-05-07T09:06:01;7.90;;;6.15;;
62844;SDS011;48929;47.910;20.390;2023-05-07T09:31:59;6.38;;;4.60;;
62844;SDS011;48929;47.910;20.390;2023-05-07T09:34:31;5.97;;;4.95;;
62844;SDS011;48929;47.910;20.390;2023-05-07T09:37:23;6.00;;;4.60;;
62844;SDS011;48929;47.910;20.390;2023-05-07T09:40:23;7.38;;;5.07;;
62844;SDS011;48929;47.910;20.390;2023-05-07T09:43:36;5.68;;;3.97;;
62844;SDS011;48929;47.910;20.390;2023-05-07T09:46:48;4.32;;;3.25;;
62844;SDS011;48929;47.910;20.390;2023-05-07T09:49:38;6.78;;;3.90;;
62844;SDS011;48929;47.910;20.390;2023-05-07T09:52:31;3.85;;;3.20;;
62844;SDS011;48929;47.910;20.390;2023-05-07T09:58:36;4.60;;;3.60;;
62844;SDS011;48929;47.910;20.390;2023-05-07T10:01:08;3.88;;;3.20;;
62844;SDS011;48929;47.910;20.390;2023-05-07T10:03:52;4.15;;;3.30;;
62844;SDS011;48929;47.910;20.390;2023-05-07T10:07:10;4.13;;;3.08;;
62844;SDS011;48929;47.910;20.390;2023-05-07T10:10:00;4.75;;;2.70;;
62844;SDS011;48929;47.910;20.390;2023-05-07T10:16:35;4.18;;;2.60;;
62844;SDS011;48929;47.910;20.390;2023-05-07T10:19:04;3.83;;;2.45;;
62844;SDS011;48929;47.910;20.390;2023-05-07T10:21:34;3.35;;;2.65;;
62844;SDS011;48929;47.910;20.390;2023-05-07T10:24:06;4.00;;;3.28;;
62844;SDS011;48929;47.910;20.390;2023-05-07T10:26:40;4.07;;;2.75;;
62844;SDS011;48929;47.910;20.390;2023-05-07T10:29:12;3.97;;;2.53;;
62844;SDS011;48929;47.910;20.390;2023-05-07T10:31:55;2.90;;;2.50;;
62844;SDS011;48929;47.910;20.390;2023-05-07T10:34:29;6.13;;;3.70;;
62844;SDS011;48929;47.910;20.390;2023-05-07T10:36:58;4.90;;;2.80;;
62844;SDS011;48929;47.910;20.390;2023-05-07T10:39:29;3.63;;;2.33;;
62844;SDS011;48929;47.910;20.390;2023-05-07T10:42:14;4.28;;;2.53;;
62844;SDS011;48929;47.910;20.390;2023-05-07T10:44:44;3.22;;;2.50;;
62844;SDS011;48929;47.910;20.390;2023-05-07T10:47:13;3.03;;;2.45;;
62844;SDS011;48929;47.910;20.390;2023-05-07T10:52:29;4.40;;;2.58;;
62844;SDS011;48929;47.910;20.390;2023-05-07T10:57:47;4.63;;;3.03;;
62844;SDS011;48929;47.910;20.390;2023-05-07T11:03:05;7.20;;;5.30;;
62844;SDS011;48929;47.910;20.390;2023-05-07T11:05:35;5.97;;;5.22;;
62844;SDS011;48929;47.910;20.390;2023-05-07T11:08:05;5.95;;;4.97;;
62844;SDS011;48929;47.910;20.390;2023-05-07T11:10:49;6.30;;;5.20;;
62844;SDS011;48929;47.910;20.390;2023-05-07T11:16:16;6.15;;;4.95;;
62844;SDS011;48929;47.910;20.390;2023-05-07T11:18:46;6.30;;;4.78;;
62844;SDS011;48929;47.910;20.390;2023-05-07T11:21:34;7.35;;;4.68;;
62844;SDS011;48929;47.910;20.390;2023-05-07T11:24:04;5.20;;;4.70;;
62844;SDS011;48929;47.910;20.390;2023-05-07T11:26:42;5.32;;;4.05;;
62844;SDS011;48929;47.910;20.390;2023-05-07T11:29:13;5.93;;;4.22;;
62844;SDS011;48929;47.910;20.390;2023-05-07T11:31:48;5.10;;;4.28;;
62844;SDS011;48929;47.910;20.390;2023-05-07T11:34:20;7.05;;;4.50;;
62844;SDS011;48929;47.910;20.390;2023-05-07T11:36:49;5.18;;;4.10;;
62844;SDS011;48929;47.910;20.390;2023-05-07T11:39:25;8.57;;;4.43;;
62844;SDS011;48929;47.910;20.390;2023-05-07T11:41:54;7.57;;;4.63;;
62844;SDS011;48929;47.910;20.390;2023-05-07T11:44:44;6.32;;;4.00;;
62844;SDS011;48929;47.910;20.390;2023-05-07T12:04:39;4.30;;;3.50;;
62844;SDS011;48929;47.910;20.390;2023-05-07T12:11:49;3.83;;;3.40;;
62844;SDS011;48929;47.910;20.390;2023-05-07T12:19:29;6.13;;;3.38;;
62844;SDS011;48929;47.910;20.390;2023-05-07T13:43:21;4.45;;;3.63;;
62844;SDS011;48929;47.910;20.390;2023-05-07T13:45:50;4.38;;;3.50;;
62844;SDS011;48929;47.910;20.390;2023-05-07T13:48:18;4.93;;;3.50;;
62844;SDS011;48929;47.910;20.390;2023-05-07T13:50:47;3.75;;;3.17;;
62844;SDS011;48929;47.910;20.390;2023-05-07T13:53:18;4.30;;;3.10;;
62844;SDS011;48929;47.910;20.390;2023-05-07T13:57:12;5.93;;;2.60;;
62844;SDS011;48929;47.910;20.390;2023-05-07T14:44:33;8.23;;;5.28;;
62844;SDS011;48929;47.910;20.390;2023-05-07T14:47:54;6.00;;;4.13;;
62844;SDS011;48929;47.910;20.390;2023-05-07T14:50:53;7.93;;;5.45;;
62844;SDS011;48929;47.910;20.390;2023-05-07T15:04:57;6.75;;;5.07;;
62844;SDS011;48929;47.910;20.390;2023-05-07T15:15:51;7.03;;;4.65;;
62844;SDS011;48929;47.910;20.390;2023-05-07T15:18:44;9.55;;;5.07;;
62844;SDS011;48929;47.910;20.390;2023-05-07T15:21:53;7.43;;;5.18;;
62844;SDS011;48929;47.910;20.390;2023-05-07T15:25:21;8.35;;;4.80;;
62844;SDS011;48929;47.910;20.390;2023-05-07T15:28:27;6.43;;;4.25;;
62844;SDS011;48929;47.910;20.390;2023-05-07T15:31:45;6.35;;;4.63;;
62844;SDS011;48929;47.910;20.390;2023-05-07T15:34:17;8.20;;;5.47;;
62844;SDS011;48929;47.910;20.390;2023-05-07T15:45:20;8.38;;;5.53;;
62844;SDS011;48929;47.910;20.390;2023-05-07T15:47:59;10.77;;;5.88;;
62844;SDS011;48929;47.910;20.390;2023-05-07T15:50:49;7.47;;;5.30;;
62844;SDS011;48929;47.910;20.390;2023-05-07T16:20:20;7.55;;;5.13;;
62844;SDS011;48929;47.910;20.390;2023-05-07T16:26:28;8.43;;;5.13;;
62844;SDS011;48929;47.910;20.390;2023-05-07T16:29:32;7.68;;;4.60;;
62844;SDS011;48929;47.910;20.390;2023-05-07T16:32:16;5.25;;;4.35;;
62844;SDS011;48929;47.910;20.390;2023-05-07T18:25:59;5.35;;;3.72;;
62844;SDS011;48929;47.910;20.390;2023-05-07T18:28:28;6.13;;;4.07;;
62844;SDS011;48929;47.910;20.390;2023-05-07T18:31:06;6.95;;;4.30;;
62844;SDS011;48929;47.910;20.390;2023-05-07T18:33:46;8.52;;;4.45;;
62844;SDS011;48929;47.910;20.390;2023-05-07T20:05:49;5.60;;;4.22;;
62844;SDS011;48929;47.910;20.390;2023-05-07T20:09:31;7.25;;;3.90;;
62844;SDS011;48929;47.910;20.390;2023-05-07T20:12:20;6.00;;;4.35;;
62844;SDS011;48929;47.910;20.390;2023-05-07T20:14:51;6.50;;;4.10;;
62844;SDS011;48929;47.910;20.390;2023-05-07T20:17:54;5.82;;;3.80;;
62844;SDS011;48929;47.910;20.390;2023-05-07T20:20:25;6.80;;;4.40;;
62844;SDS011;48929;47.910;20.390;2023-05-07T20:23:00;6.43;;;4.07;;
62844;SDS011;48929;47.910;20.390;2023-05-07T20:25:28;5.32;;;4.03;;
62844;SDS011;48929;47.910;20.390;2023-05-07T20:28:13;5.68;;;4.10;;
62844;SDS011;48929;47.910;20.390;2023-05-07T20:30:46;6.15;;;4.57;;
62844;SDS011;48929;47.910;20.390;2023-05-07T20:33:17;6.68;;;4.38;;
62844;SDS011;48929;47.910;20.390;2023-05-07T20:35:56;6.00;;;4.40;;
62844;SDS011;48929;47.910;20.390;2023-05-07T20:38:27;6.38;;;4.10;;
62844;SDS011;48929;47.910;20.390;2023-05-07T20:41:04;5.38;;;3.95;;
62844;SDS011;48929;47.910;20.390;2023-05-07T20:43:34;5.78;;;4.30;;
62844;SDS011;48929;47.910;20.390;2023-05-07T20:46:07;5.90;;;4.60;;
62844;SDS011;48929;47.910;20.390;2023-05-07T20:48:39;5.38;;;4.03;;
62844;SDS011;48929;47.910;20.390;2023-05-07T20:51:18;6.25;;;4.35;;
62844;SDS011;48929;47.910;20.390;2023-05-07T20:53:48;4.97;;;4.00;;
62844;SDS011;48929;47.910;20.390;2023-05-07T20:56:17;7.18;;;4.32;;
62844;SDS011;48929;47.910;20.390;2023-05-07T20:58:46;6.97;;;4.38;;
62844;SDS011;48929;47.910;20.390;2023-05-07T21:01:16;7.85;;;4.60;;
62844;SDS011;48929;47.910;20.390;2023-05-07T21:03:45;6.40;;;4.25;;
62844;SDS011;48929;47.910;20.390;2023-05-07T21:06:15;6.78;;;4.22;;
62844;SDS011;48929;47.910;20.390;2023-05-07T21:08:44;5.95;;;4.25;;
62844;SDS011;48929;47.910;20.390;2023-05-07T21:11:14;6.10;;;4.80;;
62844;SDS011;48929;47.910;20.390;2023-05-07T21:13:43;6.35;;;4.75;;
62844;SDS011;48929;47.910;20.390;2023-05-07T21:16:12;7.55;;;4.80;;
62844;SDS011;48929;47.910;20.390;2023-05-07T21:18:42;6.45;;;4.85;;
62844;SDS011;48929;47.910;20.390;2023-05-07T21:21:16;14.93;;;4.78;;
62844;SDS011;48929;47.910;20.390;2023-05-07T21:23:45;5.82;;;4.45;;
62844;SDS011;48929;47.910;20.390;2023-05-07T21:26:18;6.82;;;4.70;;
62844;SDS011;48929;47.910;20.390;2023-05-07T21:28:47;6.75;;;4.72;;
62844;SDS011;48929;47.910;20.390;2023-05-07T21:31:19;6.75;;;4.38;;
62844;SDS011;48929;47.910;20.390;2023-05-07T21:33:47;7.15;;;4.55;;
62844;SDS011;48929;47.910;20.390;2023-05-07T21:36:15;6.97;;;4.82;;
62844;SDS011;48929;47.910;20.390;2023-05-07T21:38:44;6.85;;;4.65;;
62844;SDS011;48929;47.910;20.390;2023-05-07T21:41:13;6.97;;;4.55;;
62844;SDS011;48929;47.910;20.390;2023-05-07T21:43:43;8.65;;;4.82;;
62844;SDS011;48929;47.910;20.390;2023-05-07T21:46:15;6.85;;;4.32;;
62844;SDS011;48929;47.910;20.390;2023-05-07T21:48:45;8.07;;;4.70;;
62844;SDS011;48929;47.910;20.390;2023-05-07T21:51:13;6.78;;;4.50;;
62844;SDS011;48929;47.910;20.390;2023-05-07T21:53:43;6.53;;;4.80;;
62844;SDS011;48929;47.910;20.390;2023-05-07T21:56:12;8.10;;;4.32;;
62844;SDS011;48929;47.910;20.390;2023-05-07T21:58:43;7.45;;;4.40;;
62844;SDS011;48929;47.910;20.390;2023-05-07T22:01:12;6.68;;;4.60;;
62844;SDS011;48929;47.910;20.390;2023-05-07T22:03:41;7.18;;;4.80;;
62844;SDS011;48929;47.910;20.390;2023-05-07T22:06:10;7.25;;;4.68;;
62844;SDS011;48929;47.910;20.390;2023-05-07T22:08:40;8.43;;;4.72;;
62844;SDS011;48929;47.910;20.390;2023-05-07T22:11:08;7.65;;;4.68;;
62844;SDS011;48929;47.910;20.390;2023-05-07T22:13:38;7.30;;;4.70;;
62844;SDS011;48929;47.910;20.390;2023-05-07T22:16:09;6.28;;;4.40;;
62844;SDS011;48929;47.910;20.390;2023-05-07T22:18:38;5.93;;;4.07;;
62844;SDS011;48929;47.910;20.390;2023-05-07T22:21:07;5.55;;;3.40;;
62844;SDS011;48929;47.910;20.390;2023-05-07T22:23:35;5.28;;;3.40;;
62844;SDS011;48929;47.910;20.390;2023-05-07T22:26:10;4.47;;;2.60;;
62844;SDS011;48929;47.910;20.390;2023-05-07T22:28:40;4.30;;;2.80;;
62844;SDS011;48929;47.910;20.390;2023-05-07T22:31:11;3.78;;;2.60;;
62844;SDS011;48929;47.910;20.390;2023-05-07T22:33:50;4.63;;;2.72;;
62844;SDS011;48929;47.910;20.390;2023-05-07T22:36:27;4.40;;;2.78;;
62844;SDS011;48929;47.910;20.390;2023-05-07T22:38:59;4.75;;;2.70;;
62844;SDS011;48929;47.910;20.390;2023-05-07T22:41:29;3.65;;;2.40;;
62844;SDS011;48929;47.910;20.390;2023-05-07T22:43:58;3.45;;;2.35;;
62844;SDS011;48929;47.910;20.390;2023-05-07T22:46:38;3.72;;;2.45;;
62844;SDS011;48929;47.910;20.390;2023-05-07T22:49:17;3.72;;;2.60;;
62844;SDS011;48929;47.910;20.390;2023-05-07T22:51:46;3.10;;;2.35;;
62844;SDS011;48929;47.910;20.390;2023-05-07T22:54:18;4.07;;;2.45;;
62844;SDS011;48929;47.910;20.390;2023-05-07T22:56:49;3.83;;;2.60;;
62844;SDS011;48929;47.910;20.390;2023-05-07T22:59:18;4.10;;;2.60;;
62844;SDS011;48929;47.910;20.390;2023-05-07T23:01:48;3.88;;;2.72;;
62844;SDS011;48929;47.910;20.390;2023-05-07T23:04:18;4.05;;;2.90;;
62844;SDS011;48929;47.910;20.390;2023-05-07T23:06:46;4.43;;;3.10;;
62844;SDS011;48929;47.910;20.390;2023-05-07T23:09:15;4.50;;;3.25;;
62844;SDS011;48929;47.910;20.390;2023-05-07T23:11:44;4.53;;;3.28;;
62844;SDS011;48929;47.910;20.390;2023-05-07T23:14:13;4.78;;;3.33;;
62844;SDS011;48929;47.910;20.390;2023-05-07T23:16:42;5.50;;;3.67;;
62844;SDS011;48929;47.910;20.390;2023-05-07T23:19:13;8.07;;;3.60;;
62844;SDS011;48929;47.910;20.390;2023-05-07T23:21:42;4.32;;;3.30;;
62844;SDS011;48929;47.910;20.390;2023-05-07T23:24:11;5.57;;;3.58;;
62844;SDS011;48929;47.910;20.390;2023-05-07T23:26:40;5.28;;;3.58;;
62844;SDS011;48929;47.910;20.390;2023-05-07T23:29:08;6.45;;;3.45;;
62844;SDS011;48929;47.910;20.390;2023-05-07T23:31:37;5.03;;;3.53;;
62844;SDS011;48929;47.910;20.390;2023-05-07T23:34:07;4.80;;;3.33;;
62844;SDS011;48929;47.910;20.390;2023-05-07T23:36:37;5.28;;;3.17;;
62844;SDS011;48929;47.910;20.390;2023-05-07T23:39:06;6.00;;;3.10;;
62844;SDS011;48929;47.910;20.390;2023-05-07T23:41:36;4.78;;;3.30;;
62844;SDS011;48929;47.910;20.390;2023-05-07T23:44:09;4.75;;;3.10;;
62844;SDS011;48929;47.910;20.390;2023-05-07T23:46:42;7.15;;;3.20;;
62844;SDS011;48929;47.910;20.390;2023-05-07T23:49:11;3.95;;;2.88;;
62844;SDS011;48929;47.910;20.390;2023-05-07T23:51:41;3.67;;;2.67;;
62844;SDS011;48929;47.910;20.390;2023-05-07T23:54:10;4.05;;;2.70;;
62844;SDS011;48929;47.910;20.390;2023-05-07T23:56:39;4.00;;;2.70;;
62844;SDS011;48929;47.910;20.390;2023-05-07T23:59:09;4.00;;;2.55;;
